Terminal Aerodrome Forecast
Issued by NWS

Home | Current Version | Previous Version | Text Only | Print | Product List | Glossary On
Versions: 1 2 3 4 5 6 7 8 9 10 11 12 13 14 15 16 17 18 19
500
FTUS46 KMTR 272337
TAFMRY
TAF
KMRY 272337Z 2800/2824 24012KT P6SM SCT012
      TEMPO 2800/2803 BKN012
     FM280300 24010KT P6SM OVC012
     FM280600 23007KT P6SM OVC007
     FM280800 24004KT P6SM OVC003
     FM281200 23004KT 2SM BR OVC003
     FM281730 27006KT P6SM FEW012
     FM282100 27012KT P6SM SKC=

USA.gov is the U.S. government's official web portal to all federal, state and local government web resources and services.